Time;durP1;ratioP1;P1;durP2;ratioP2;P2;SDS_P1;SDS_P2;PMS_P1;PMS_P2;Temp;Humidity;BMP_temperature;BMP_pressure;BME280_temperature;BME280_humidity;BME280_pressure;Samples;Min_cycle;Max_cycle;Signal;HPM_P1;HPM_P2
2021/03/31 00:00:39;;;;;;;29.10;9.77;;;;;;;7.65;83.58;101194.78;5103181;28;20052;-62
2021/03/31 00:03:13;;;;;;;24.27;9.48;;;;;;;7.59;83.76;101174.00;5085544;28;20054;-62
2021/03/31 00:05:39;;;;;;;27.70;11.32;;;;;;;7.57;83.78;101186.03;5103535;28;20385;-62
2021/03/31 00:08:06;;;;;;;25.30;9.82;;;;;;;7.57;84.00;101180.88;5103536;28;20051;-62
2021/03/31 00:11:04;;;;;;;39.13;11.27;;;;;;;7.61;83.91;101177.47;5085329;28;20028;-62
2021/03/31 00:13:29;;;;;;;21.92;10.02;;;;;;;7.61;83.89;101181.78;5058250;28;20453;-62
2021/03/31 00:15:56;;;;;;;34.95;12.70;;;;;;;7.63;83.82;101185.25;5085364;28;20051;-62
2021/03/31 00:18:23;;;;;;;40.20;10.40;;;;;;;7.62;83.65;101178.38;5103552;28;20024;-61
2021/03/31 00:20:49;;;;;;;42.10;11.27;;;;;;;7.60;83.97;101174.88;5103452;28;20020;-62
2021/03/31 00:23:17;;;;;;;28.33;10.32;;;;;;;7.60;83.76;101168.00;5103417;28;20035;-61
2021/03/31 00:25:42;;;;;;;24.33;10.55;;;;;;;7.57;83.79;101183.47;5085030;28;20070;-61
2021/03/31 00:28:10;;;;;;;25.02;9.68;;;;;;;7.54;84.01;101179.09;5103319;28;20024;-61
2021/03/31 00:30:37;;;;;;;27.65;11.73;;;;;;;7.51;84.12;101167.81;5103090;28;20024;-62
2021/03/31 00:33:03;;;;;;;29.02;12.02;;;;;;;7.55;83.97;101167.06;5103258;28;20027;-62
2021/03/31 00:35:29;;;;;;;30.27;11.55;;;;;;;7.57;84.09;101165.38;5103495;28;20028;-62
2021/03/31 00:37:54;;;;;;;27.95;11.40;;;;;;;7.52;84.00;101156.66;5103274;28;20024;-61
2021/03/31 00:40:21;;;;;;;32.33;12.50;;;;;;;7.56;83.95;101154.16;5103384;28;20083;-62
2021/03/31 00:42:47;;;;;;;31.05;11.32;;;;;;;7.51;83.99;101163.53;5104167;28;20026;-61
2021/03/31 00:45:14;;;;;;;33.70;12.18;;;;;;;7.52;84.03;101151.50;5106878;28;20032;-62
2021/03/31 00:47:40;;;;;;;20.77;9.15;;;;;;;7.49;84.39;101154.03;5107142;28;20028;-62
2021/03/31 00:50:08;;;;;;;42.17;12.95;;;;;;;7.51;84.13;101160.06;5107180;28;20030;-61
2021/03/31 00:52:33;;;;;;;13.18;4.55;;;;;;;7.51;84.09;101155.78;5107118;28;20035;-62
2021/03/31 00:54:59;;;;;;;35.20;12.88;;;;;;;7.52;84.05;101152.38;5107011;28;20020;-62
2021/03/31 00:57:25;;;;;;;28.63;11.30;;;;;;;7.53;84.23;101155.81;5106868;28;20035;-63
2021/03/31 00:59:51;;;;;;;27.60;11.23;;;;;;;7.49;84.20;101148.88;5106463;28;20119;-61
2021/03/31 01:02:16;;;;;;;36.03;11.35;;;;;;;7.56;84.01;101149.00;5107080;28;20036;-62
2021/03/31 01:04:42;;;;;;;24.75;9.02;;;;;;;7.53;84.08;101142.88;5106667;28;20032;-61
2021/03/31 01:07:07;;;;;;;28.75;9.45;;;;;;;7.54;83.88;101144.66;5107038;28;20052;-61
2021/03/31 01:09:33;;;;;;;34.83;12.80;;;;;;;7.47;83.95;101140.22;5106752;28;20051;-61
2021/03/31 01:12:25;;;;;;;36.80;12.10;;;;;;;7.52;84.13;101152.38;5088550;28;20487;-61
2021/03/31 01:15:10;;;;;;;26.00;10.95;;;;;;;7.52;83.97;101141.16;5106261;28;20028;-61
2021/03/31 01:17:50;;;;;;;32.20;11.90;;;;;;;7.52;84.00;101142.03;5106578;28;20032;-61
2021/03/31 01:20:39;;;;;;;32.75;12.98;;;;;;;7.52;83.94;101146.34;5106631;28;20024;-62
2021/03/31 01:23:42;;;;;;;49.00;14.30;;;;;;;7.48;83.94;101144.53;5106478;28;20024;-62
2021/03/31 01:26:25;;;;;;;36.45;12.55;;;;;;;7.52;84.06;101136.88;5106304;28;20044;-61
2021/03/31 01:29:06;;;;;;;43.67;13.35;;;;;;;7.52;83.99;101141.16;5106408;28;20032;-62
2021/03/31 01:31:40;;;;;;;26.60;11.90;;;;;;;7.52;83.88;101136.00;5106460;28;20065;-62
2021/03/31 01:34:37;;;;;;;38.00;12.02;;;;;;;7.50;83.88;101141.13;5106111;28;20055;-62
2021/03/31 01:37:15;;;;;;;22.83;11.60;;;;;;;7.48;83.96;101137.66;5106073;28;20021;-62
2021/03/31 01:39:43;;;;;;;27.65;8.35;;;;;;;7.45;84.09;101140.19;5087862;28;20053;-60
2021/03/31 01:42:10;;;;;;;37.67;12.43;;;;;;;7.46;84.07;101139.31;5106185;28;20028;-61
2021/03/31 01:44:37;;;;;;;28.35;12.95;;;;;;;7.48;84.11;101135.06;5105666;28;20020;-61
2021/03/31 01:47:04;;;;;;;43.47;13.23;;;;;;;7.52;83.84;101136.88;5106239;28;20078;-60
2021/03/31 01:49:31;;;;;;;36.47;12.73;;;;;;;7.52;83.92;101142.03;5105962;28;20028;-60
2021/03/31 01:51:59;;;;;;;30.73;13.48;;;;;;;7.52;83.95;101136.00;5105906;28;20032;-61
2021/03/31 01:54:27;;;;;;;29.98;14.88;;;;;;;7.47;83.80;101125.59;5105006;28;20016;-60
2021/03/31 01:56:54;;;;;;;40.63;14.52;;;;;;;7.46;83.92;101117.81;5105780;28;20028;-62
2021/03/31 01:59:21;;;;;;;41.88;15.13;;;;;;;7.46;83.98;101116.06;5105361;28;20080;-59
2021/03/31 02:01:50;;;;;;;43.53;14.73;;;;;;;7.44;84.10;101120.38;5105841;28;20046;-61
2021/03/31 02:04:16;;;;;;;40.42;14.63;;;;;;;7.45;83.95;101124.69;5105555;28;20027;-61
2021/03/31 02:06:43;;;;;;;37.17;14.57;;;;;;;7.46;83.97;101120.41;5105651;28;20024;-61
2021/03/31 02:09:09;;;;;;;38.17;14.68;;;;;;;7.41;84.24;101120.31;5105561;28;20028;-61
2021/03/31 02:11:35;;;;;;;35.15;15.48;;;;;;;7.44;84.26;101126.38;5105593;28;20020;-60
2021/03/31 02:14:01;;;;;;;41.60;15.10;;;;;;;7.46;84.08;101128.16;5105137;28;20051;-60
2021/03/31 02:16:31;;;;;;;48.38;14.48;;;;;;;7.44;84.06;101123.81;5105561;28;20092;-60
2021/03/31 02:18:57;;;;;;;41.30;15.00;;;;;;;7.47;84.14;101137.63;5105304;28;20080;-61
2021/03/31 02:21:23;;;;;;;44.40;15.32;;;;;;;7.44;84.14;101128.97;5105381;28;20084;-61
2021/03/31 02:23:49;;;;;;;40.25;14.50;;;;;;;7.44;84.08;101128.97;5105404;28;20051;-61
2021/03/31 02:26:16;;;;;;;47.35;15.63;;;;;;;7.43;84.11;101124.66;5105248;28;20041;-61
2021/03/31 02:28:42;;;;;;;41.95;13.85;;;;;;;7.39;84.25;101119.41;5105103;28;20379;-61
2021/03/31 02:31:08;;;;;;;33.78;14.77;;;;;;;7.35;84.28;101118.50;5104903;28;20449;-61
2021/03/31 02:33:35;;;;;;;34.92;14.90;;;;;;;7.31;84.42;101115.00;5105047;28;20020;-60
2021/03/31 02:36:01;;;;;;;34.70;14.73;;;;;;;7.30;84.49;101109.81;5104973;28;20032;-61
2021/03/31 02:38:29;;;;;;;34.45;14.35;;;;;;;7.30;84.45;101117.56;5105021;28;20031;-61
2021/03/31 02:40:55;;;;;;;36.15;13.50;;;;;;;7.30;84.61;101113.25;5105365;28;20119;-61
2021/03/31 02:43:23;;;;;;;43.97;15.27;;;;;;;7.31;84.47;101102.09;5104798;28;20026;-61
2021/03/31 02:45:53;;;;;;;31.13;14.50;;;;;;;7.35;84.37;101108.16;5104611;28;20277;-61
2021/03/31 02:48:21;;;;;;;27.95;14.07;;;;;;;7.35;84.47;101108.16;5104829;28;20156;-61
2021/03/31 02:50:47;;;;;;;36.13;13.70;;;;;;;7.28;84.45;101102.03;5104842;28;20035;-61
2021/03/31 02:53:15;;;;;;;38.70;14.82;;;;;;;7.30;84.40;101099.50;5104781;28;20028;-63
2021/03/31 02:55:40;;;;;;;37.67;14.18;;;;;;;7.29;84.37;101098.59;5104672;28;20046;-61
2021/03/31 02:58:07;;;;;;;30.10;15.73;;;;;;;7.28;84.47;101090.84;5104595;28;20020;-61
2021/03/31 03:00:33;;;;;;;37.30;15.38;;;;;;;7.26;84.42;101092.50;5104294;28;20032;-61
2021/03/31 03:03:01;;;;;;;37.53;13.65;;;;;;;7.23;84.47;101084.72;5104737;28;20055;-61
2021/03/31 03:05:27;;;;;;;40.05;14.35;;;;;;;7.21;84.45;101089.84;5104364;28;20051;-65
2021/03/31 03:07:53;;;;;;;38.58;16.67;;;;;;;7.17;84.69;101088.94;5103739;28;20059;-61
2021/03/31 03:10:18;;;;;;;36.67;14.02;;;;;;;7.16;84.62;101082.03;5104459;28;20024;-61
2021/03/31 03:12:46;;;;;;;43.40;17.25;;;;;;;7.15;84.53;101079.44;5104598;28;20031;-61
2021/03/31 03:15:14;;;;;;;47.10;16.98;;;;;;;7.14;84.73;101077.69;5103837;28;20055;-61
2021/03/31 03:17:40;;;;;;;41.92;15.13;;;;;;;7.11;84.69;101082.81;5104502;28;20103;-61
2021/03/31 03:20:09;;;;;;;48.95;16.52;;;;;;;7.09;84.95;101075.03;5104309;28;20024;-61
2021/03/31 03:22:35;;;;;;;33.78;16.48;;;;;;;7.06;84.96;101082.75;5104425;28;20020;-61
2021/03/31 03:25:03;;;;;;;49.33;19.00;;;;;;;7.02;85.11;101083.50;5104252;28;20024;-61
2021/03/31 03:27:28;;;;;;;47.72;17.38;;;;;;;7.07;84.88;101087.94;5103844;28;20393;-61
2021/03/31 03:29:54;;;;;;;41.08;17.95;;;;;;;7.04;84.91;101092.16;5103616;28;20050;-61
2021/03/31 03:32:21;;;;;;;49.70;19.83;;;;;;;7.03;85.04;101090.41;5104205;28;20030;-60
2021/03/31 03:34:48;;;;;;;45.53;19.45;;;;;;;6.96;84.96;101076.53;5104017;28;20039;-60
2021/03/31 03:37:19;;;;;;;48.40;16.80;;;;;;;7.00;85.03;101086.06;5104106;28;20024;-61
2021/03/31 03:39:45;;;;;;;52.50;20.37;;;;;;;7.02;85.17;101093.84;5104122;28;20038;-61
2021/03/31 03:42:11;;;;;;;39.47;16.05;;;;;;;6.99;85.40;101086.03;5104034;28;20024;-61
2021/03/31 03:44:36;;;;;;;46.95;19.05;;;;;;;7.00;85.54;101090.34;5103539;28;20480;-61
2021/03/31 03:47:02;;;;;;;45.58;17.60;;;;;;;6.98;85.64;101090.31;5103872;28;20016;-60
2021/03/31 03:49:27;;;;;;;40.65;15.90;;;;;;;6.99;85.66;101083.47;5103894;28;20032;-60
2021/03/31 03:51:53;;;;;;;30.38;11.13;;;;;;;7.01;85.74;101092.09;5103843;28;20031;-60
2021/03/31 03:54:19;;;;;;;44.63;17.52;;;;;;;7.02;85.71;101094.72;5103613;28;20078;-61
2021/03/31 03:56:49;;;;;;;44.03;17.17;;;;;;;7.01;85.90;101092.97;5103696;28;20469;-61
2021/03/31 03:59:27;;;;;;;31.17;12.50;;;;;;;7.00;85.88;101085.19;5103124;28;20016;-61
2021/03/31 04:01:53;;;;;;;45.08;13.77;;;;;;;6.99;85.81;101091.19;5103669;28;20020;-61
2021/03/31 04:04:22;;;;;;;42.95;16.77;;;;;;;6.94;85.85;101079.09;5103634;28;20352;-61
2021/03/31 04:06:47;;;;;;;36.28;15.00;;;;;;;6.93;85.83;101079.06;5103641;28;20031;-61
2021/03/31 04:09:13;;;;;;;41.35;15.05;;;;;;;6.91;85.88;101081.63;5103560;28;20024;-61
2021/03/31 04:11:42;;;;;;;31.15;12.05;;;;;;;6.87;86.14;101072.06;5103530;28;20549;-61
2021/03/31 04:14:08;;;;;;;35.75;17.85;;;;;;;6.90;86.05;101072.13;5103128;28;20058;-62
2021/03/31 04:16:35;;;;;;;29.45;12.90;;;;;;;6.87;86.14;101074.66;5103273;28;20035;-62
2021/03/31 04:19:07;;;;;;;37.42;16.20;;;;;;;6.88;86.28;101068.66;5106527;28;20036;-61
2021/03/31 04:21:34;;;;;;;43.95;17.58;;;;;;;6.87;86.38;101066.06;5107685;28;20043;-62
2021/03/31 04:24:02;;;;;;;42.55;16.75;;;;;;;6.86;86.56;101070.34;5107450;28;20039;-62
2021/03/31 04:26:31;;;;;;;42.00;17.25;;;;;;;6.90;86.47;101058.38;5107299;28;20044;-62
2021/03/31 04:28:57;;;;;;;40.42;17.08;;;;;;;6.95;86.32;101067.03;5107608;28;20035;-62
2021/03/31 04:31:24;;;;;;;43.60;17.92;;;;;;;6.96;86.49;101068.78;5107320;28;20024;-62
2021/03/31 04:33:51;;;;;;;35.88;16.90;;;;;;;6.99;86.36;101067.97;5107268;28;20031;-62
2021/03/31 04:36:18;;;;;;;49.72;14.68;;;;;;;7.01;86.21;101071.47;5107520;28;20035;-63
2021/03/31 04:38:48;;;;;;;39.97;18.45;;;;;;;6.99;86.32;101070.56;5107549;28;20020;-64
2021/03/31 04:41:14;;;;;;;37.05;16.40;;;;;;;7.00;86.21;101067.13;5107283;28;20054;-63
2021/03/31 04:43:39;;;;;;;47.92;16.27;;;;;;;6.97;86.34;101069.66;5107308;28;20016;-61
2021/03/31 04:46:08;;;;;;;46.72;17.98;;;;;;;7.00;86.24;101065.41;5106375;28;20445;-68
2021/03/31 04:48:35;;;;;;;55.25;18.98;;;;;;;6.99;86.24;101075.72;5107027;28;20035;-63
2021/03/31 04:51:00;;;;;;;38.75;15.48;;;;;;;6.93;86.32;101069.59;5107238;28;20043;-63
2021/03/31 04:53:26;;;;;;;49.92;20.45;;;;;;;7.00;86.39;101078.31;5106913;28;20045;-63
2021/03/31 04:55:51;;;;;;;49.92;20.60;;;;;;;7.04;86.27;101080.13;5106927;28;20027;-62
2021/03/31 04:58:17;;;;;;;47.13;19.52;;;;;;;7.00;86.21;101085.19;5107044;28;20031;-62
2021/03/31 05:00:42;;;;;;;56.17;21.25;;;;;;;6.99;86.25;101078.28;5106785;28;20051;-63
2021/03/31 05:03:08;;;;;;;46.65;18.85;;;;;;;6.95;86.33;101069.63;5106865;28;20024;-63
2021/03/31 05:05:34;;;;;;;65.50;24.92;;;;;;;6.97;86.34;101072.22;5106730;28;20016;-63
2021/03/31 05:07:59;;;;;;;52.10;25.08;;;;;;;6.97;86.42;101067.06;5106687;28;20051;-63
2021/03/31 05:10:25;;;;;;;64.10;22.33;;;;;;;6.97;86.38;101072.22;5106664;28;20035;-64
2021/03/31 05:12:51;;;;;;;57.22;23.73;;;;;;;6.99;86.41;101068.84;5106337;28;20028;-63
2021/03/31 05:15:17;;;;;;;74.07;25.08;;;;;;;7.01;86.21;101082.63;5105853;28;20050;-64
2021/03/31 05:17:43;;;;;;;53.90;23.13;;;;;;;7.01;86.41;101076.63;5106463;28;20042;-61
2021/03/31 05:20:09;;;;;;;63.47;23.75;;;;;;;7.02;86.19;101075.75;5106475;28;20035;-61
2021/03/31 05:22:35;;;;;;;61.28;22.40;;;;;;;6.99;86.14;101081.75;5106486;28;20252;-62
2021/03/31 05:25:01;;;;;;;58.67;21.77;;;;;;;7.02;86.19;101089.56;5106336;28;20030;-63
2021/03/31 05:27:26;;;;;;;75.47;24.13;;;;;;;7.00;86.14;101085.19;5087931;28;20484;-62
2021/03/31 05:29:51;;;;;;;60.58;21.63;;;;;;;7.00;86.20;101085.19;5104411;28;20462;-62
2021/03/31 05:32:17;;;;;;;67.97;22.58;;;;;;;6.96;86.06;101076.53;5106053;28;20028;-62
2021/03/31 05:34:42;;;;;;;40.10;16.70;;;;;;;6.94;85.91;101086.84;5105913;28;20048;-62
2021/03/31 05:37:08;;;;;;;62.40;20.05;;;;;;;6.91;85.99;101084.22;5105959;28;20020;-61
2021/03/31 05:39:34;;;;;;;46.67;17.67;;;;;;;6.89;86.20;101088.47;5105927;28;20070;-62
2021/03/31 05:42:00;;;;;;;54.28;19.15;;;;;;;6.87;86.31;101090.13;5105737;28;20030;-62
2021/03/31 05:44:26;;;;;;;94.18;23.42;;;;;;;6.86;86.33;101087.53;5105248;28;20096;-62
2021/03/31 05:46:52;;;;;;;49.55;15.73;;;;;;;6.80;86.33;101081.44;5105798;28;20035;-62
2021/03/31 05:49:18;;;;;;;96.10;25.15;;;;;;;6.81;86.46;101084.88;5105394;28;20072;-62
2021/03/31 05:51:43;;;;;;;113.15;25.98;;;;;;;6.84;86.63;101077.19;5105678;28;20084;-62
2021/03/31 05:54:09;;;;;;;59.00;20.17;;;;;;;6.84;86.56;101073.75;5105638;28;20048;-62
2021/03/31 05:56:35;;;;;;;52.45;18.73;;;;;;;6.82;86.58;101074.56;5105576;28;20028;-62
2021/03/31 05:59:04;;;;;;;93.38;20.73;;;;;;;6.83;86.62;101067.72;5105784;28;20024;-62
2021/03/31 06:01:30;;;;;;;47.17;11.68;;;;;;;6.83;86.55;101070.28;5105303;28;20095;-62
2021/03/31 06:03:57;;;;;;;87.20;20.27;;;;;;;6.80;86.60;101070.22;5087100;28;20122;-62
2021/03/31 06:06:22;;;;;;;69.78;20.17;;;;;;;6.79;86.93;101076.22;5105402;28;20020;-61
2021/03/31 06:08:48;;;;;;;70.13;21.92;;;;;;;6.82;86.77;101081.47;5105346;28;20487;-61
2021/03/31 06:11:16;;;;;;;65.13;19.02;;;;;;;6.83;86.74;101067.72;5105273;28;20031;-62
2021/03/31 06:13:57;;;;;;;43.00;19.60;;;;;;;6.81;86.89;101072.84;5105260;28;20441;-61
2021/03/31 06:16:27;;;;;;;54.13;17.33;;;;;;;6.81;87.02;101074.53;5104977;28;20027;-62
2021/03/31 06:18:52;;;;;;;48.80;17.42;;;;;;;6.87;87.05;101076.38;5105340;28;20027;-63
2021/03/31 06:21:18;;;;;;;49.85;17.17;;;;;;;6.86;87.19;101066.88;5105104;28;20028;-61
2021/03/31 06:26:29;;;;;;;39.90;15.80;;;;;;;6.87;87.27;101069.50;5104771;28;20040;-61
2021/03/31 06:29:08;;;;;;;34.33;15.25;;;;;;;6.86;87.01;101060.03;5105040;28;20028;-62
2021/03/31 06:31:37;;;;;;;38.80;14.60;;;;;;;6.86;86.79;101056.56;5104817;28;20259;-62
2021/03/31 06:34:17;;;;;;;40.97;17.27;;;;;;;6.90;87.13;101056.63;5104625;28;20035;-62
2021/03/31 06:36:46;;;;;;;39.63;17.73;;;;;;;6.93;86.96;101055.84;5105089;28;20028;-62
2021/03/31 06:39:34;;;;;;;37.83;17.70;;;;;;;6.94;87.13;101055.88;5104990;28;20028;-61
2021/03/31 06:42:10;;;;;;;46.72;18.00;;;;;;;7.00;86.79;101052.50;5104423;28;20023;-62
2021/03/31 06:45:05;;;;;;;37.30;16.02;;;;;;;7.01;86.76;101051.66;5104341;28;20028;-61
2021/03/31 06:47:35;;;;;;;42.80;14.88;;;;;;;7.08;86.56;101052.63;5104818;28;20084;-61
2021/03/31 06:50:06;;;;;;;28.20;12.40;;;;;;;7.07;86.41;101050.91;5104981;28;20099;-61
2021/03/31 06:52:31;;;;;;;31.88;12.75;;;;;;;7.04;86.38;101045.69;5104794;28;20028;-62
2021/03/31 06:55:03;;;;;;;40.63;17.25;;;;;;;7.03;86.47;101047.38;5104697;28;20535;-62
2021/03/31 06:57:29;;;;;;;40.95;18.27;;;;;;;7.07;86.41;101049.19;5104593;28;20536;-61
2021/03/31 07:00:07;;;;;;;25.50;9.95;;;;;;;7.18;86.39;101045.91;5104307;28;20036;-61
2021/03/31 07:02:34;;;;;;;32.95;13.45;;;;;;;7.15;86.43;101044.16;5104520;28;20525;-61
2021/03/31 07:05:00;;;;;;;35.50;14.77;;;;;;;7.18;86.12;101057.13;5104401;28;20050;-61
2021/03/31 07:07:37;;;;;;;40.78;14.13;;;;;;;7.14;86.06;101050.13;5104565;28;20031;-61
2021/03/31 07:10:08;;;;;;;18.08;10.43;;;;;;;7.24;85.84;101053.75;5104549;28;20031;-61
2021/03/31 07:12:38;;;;;;;33.53;14.38;;;;;;;7.25;85.98;101054.63;5104568;28;20028;-61
2021/03/31 07:15:05;;;;;;;43.53;15.90;;;;;;;7.30;85.98;101050.41;5104156;28;20028;-61
2021/03/31 07:17:31;;;;;;;46.75;18.02;;;;;;;7.32;85.83;101047.00;5104481;28;20105;-62
2021/03/31 07:19:57;;;;;;;42.50;16.88;;;;;;;7.30;85.75;101042.66;5104496;28;20535;-62
2021/03/31 07:22:22;;;;;;;33.78;12.80;;;;;;;7.34;85.82;101054.78;5104264;28;20043;-62
2021/03/31 07:24:49;;;;;;;52.00;20.38;;;;;;;7.43;85.74;101046.28;5104031;28;20016;-62
2021/03/31 07:27:16;;;;;;;36.92;17.70;;;;;;;7.50;85.61;101042.94;5103842;28;20085;-63
2021/03/31 07:30:06;;;;;;;40.28;16.65;;;;;;;7.61;85.38;101050.84;5103862;28;20023;-62
2021/03/31 07:32:34;;;;;;;35.47;15.48;;;;;;;7.59;84.81;101047.38;5103743;28;20062;-62
2021/03/31 07:35:02;;;;;;;45.20;17.67;;;;;;;7.57;84.74;101057.69;5104013;28;20050;-63
2021/03/31 07:37:30;;;;;;;40.58;15.18;;;;;;;7.58;84.78;101053.41;5104071;28;20021;-62
2021/03/31 07:40:00;;;;;;;51.13;19.23;;;;;;;7.65;84.80;101055.22;5104157;28;20027;-62
2021/03/31 07:42:29;;;;;;;41.15;15.95;;;;;;;7.66;84.57;101051.81;5103662;28;20050;-62
2021/03/31 07:44:58;;;;;;;42.03;17.80;;;;;;;7.77;84.50;101058.81;5103570;28;20028;-63
2021/03/31 07:47:25;;;;;;;34.88;17.13;;;;;;;7.79;84.08;101064.88;5103951;28;20096;-61
2021/03/31 07:49:52;;;;;;;31.45;13.02;;;;;;;7.81;83.90;101050.28;5104082;28;20062;-62
2021/03/31 07:52:17;;;;;;;44.75;18.15;;;;;;;7.81;83.53;101055.44;5085060;28;20062;-62
2021/03/31 07:54:43;;;;;;;37.17;16.83;;;;;;;7.82;83.72;101052.00;5103752;28;20020;-62
2021/03/31 07:57:28;;;;;;;34.95;15.80;;;;;;;7.77;83.29;101049.34;5103734;28;20016;-63
2021/03/31 07:59:54;;;;;;;41.42;17.58;;;;;;;7.82;83.44;101062.34;5103551;28;20111;-62
2021/03/31 08:02:24;;;;;;;42.15;18.45;;;;;;;7.86;83.23;101058.09;5103694;28;20198;-62
2021/03/31 08:04:49;;;;;;;39.00;18.27;;;;;;;7.87;83.36;101055.53;5103527;28;20054;-62
2021/03/31 08:07:23;;;;;;;41.05;19.13;;;;;;;7.92;83.28;101053.84;5103695;28;20031;-61
2021/03/31 08:09:48;;;;;;;45.13;16.20;;;;;;;7.93;83.16;101058.19;5103585;28;20103;-62
2021/03/31 08:12:34;;;;;;;39.05;16.55;;;;;;;7.97;83.10;101058.22;5103485;28;20028;-62
2021/03/31 08:15:00;;;;;;;36.53;15.63;;;;;;;7.91;82.97;101062.47;5084283;28;20077;-62
2021/03/31 08:17:26;;;;;;;34.95;16.30;;;;;;;7.93;82.85;101058.19;5103409;28;20024;-62
2021/03/31 08:19:52;;;;;;;29.52;14.52;;;;;;;7.87;82.80;101063.28;5103361;28;20035;-62
2021/03/31 08:22:23;;;;;;;23.23;10.35;;;;;;;7.84;83.15;101050.31;5103416;28;20020;-62
2021/03/31 08:24:55;;;;;;;33.10;16.25;;;;;;;7.81;83.02;101071.81;5103310;28;20039;-62
2021/03/31 08:27:20;;;;;;;34.10;14.25;;;;;;;7.79;83.19;101068.34;5103133;28;20040;-62
2021/03/31 08:29:53;;;;;;;31.65;11.75;;;;;;;7.73;83.31;101073.41;5102892;28;20039;-60
2021/03/31 08:32:22;;;;;;;38.65;14.13;;;;;;;7.69;83.23;101061.28;5103430;28;20039;-61
2021/03/31 08:34:48;;;;;;;37.25;15.15;;;;;;;7.72;83.45;101068.22;5103229;28;20020;-61
2021/03/31 08:37:20;;;;;;;42.72;16.85;;;;;;;7.73;83.44;101064.81;5103369;28;20024;-62
2021/03/31 08:39:46;;;;;;;31.40;15.63;;;;;;;7.68;83.53;101063.00;5103335;28;20043;-61
2021/03/31 08:42:11;;;;;;;32.47;17.00;;;;;;;7.61;83.49;101044.81;5103155;28;20020;-62
2021/03/31 08:44:39;;;;;;;40.63;15.80;;;;;;;7.77;83.57;101076.91;5103017;28;20016;-62
2021/03/31 08:47:26;;;;;;;37.95;14.77;;;;;;;7.81;83.50;101073.53;5103524;28;20036;-62
2021/03/31 08:50:05;;;;;;;37.97;15.25;;;;;;;7.84;83.35;101072.69;5103250;28;20057;-62
2021/03/31 08:52:33;;;;;;;27.38;12.07;;;;;;;7.90;83.29;101071.06;5084932;28;20115;-63
2021/03/31 08:55:02;;;;;;;33.40;14.57;;;;;;;7.96;83.13;101071.97;5103164;28;20080;-62
2021/03/31 08:57:29;;;;;;;28.23;15.02;;;;;;;7.97;82.78;101065.97;5103215;28;20031;-62
2021/03/31 08:59:59;;;;;;;28.88;10.90;;;;;;;7.95;82.63;101068.56;5102800;28;20020;-62
2021/03/31 09:02:28;;;;;;;37.05;15.65;;;;;;;7.96;82.53;101069.41;5103299;28;20466;-62
2021/03/31 09:04:55;;;;;;;33.65;15.75;;;;;;;7.94;82.46;101069.38;5105553;28;20033;-63
2021/03/31 09:07:21;;;;;;;39.45;14.65;;;;;;;7.99;82.77;101066.84;5106751;28;20044;-62
2021/03/31 09:09:47;;;;;;;35.72;13.43;;;;;;;7.99;82.43;101074.59;5106615;28;20107;-62
2021/03/31 09:12:16;;;;;;;39.17;16.55;;;;;;;7.97;82.43;101066.84;5106993;28;20027;-62
2021/03/31 09:14:44;;;;;;;41.88;15.80;;;;;;;8.03;82.08;101073.81;5106296;28;20023;-63
2021/03/31 09:17:12;;;;;;;29.30;13.10;;;;;;;8.01;82.31;101065.16;5106579;28;20380;-63
2021/03/31 09:19:41;;;;;;;28.08;13.88;;;;;;;8.06;82.34;101063.50;5106811;28;20237;-63
2021/03/31 09:22:11;;;;;;;31.40;13.48;;;;;;;8.10;82.38;101062.69;5106460;28;20573;-63
2021/03/31 09:24:47;;;;;;;36.10;15.10;;;;;;;8.10;81.92;101054.94;5106335;28;20054;-62
2021/03/31 09:27:18;;;;;;;31.35;15.02;;;;;;;8.16;82.09;101056.75;5106229;28;20466;-62
2021/03/31 09:29:45;;;;;;;29.40;14.13;;;;;;;8.19;81.75;101046.44;5105824;28;20101;-62
2021/03/31 09:32:18;;;;;;;32.08;13.60;;;;;;;8.20;81.89;101042.97;5106351;28;20027;-62
2021/03/31 09:34:46;;;;;;;33.75;12.80;;;;;;;8.25;81.62;101046.50;5106219;28;20024;-62
2021/03/31 09:37:13;;;;;;;33.63;12.48;;;;;;;8.22;81.54;101053.34;5106282;28;20023;-62
2021/03/31 09:39:53;;;;;;;29.58;14.10;;;;;;;8.27;81.60;101046.53;5106213;28;20046;-62
2021/03/31 09:42:31;;;;;;;37.00;12.15;;;;;;;8.12;81.04;101037.72;5106307;28;20032;-62
2021/03/31 09:44:57;;;;;;;37.03;10.88;;;;;;;8.01;80.86;101037.59;5105725;28;20392;-62
2021/03/31 09:47:24;;;;;;;32.00;11.05;;;;;;;7.82;81.23;101057.16;5106046;28;20049;-63
2021/03/31 09:49:54;;;;;;;29.70;9.95;;;;;;;7.68;81.62;101042.31;5105893;28;20024;-65
2021/03/31 09:52:29;;;;;;;28.85;11.30;;;;;;;7.52;82.11;101049.03;5105625;28;20024;-63
2021/03/31 09:54:59;;;;;;;48.88;13.02;;;;;;;7.38;82.52;101043.63;5105605;28;20028;-62
2021/03/31 09:57:29;;;;;;;72.47;15.50;;;;;;;7.35;82.88;101045.31;5105771;28;20027;-62
2021/03/31 09:59:55;;;;;;;48.42;13.52;;;;;;;7.29;83.10;101036.63;5105480;28;20016;-63
2021/03/31 10:02:22;;;;;;;57.67;13.48;;;;;;;7.31;83.03;101039.22;5105592;28;20052;-61
2021/03/31 10:04:48;;;;;;;61.08;16.33;;;;;;;7.25;83.48;101044.28;5105589;28;20045;-61
2021/03/31 10:07:16;;;;;;;37.80;10.30;;;;;;;7.22;83.70;101041.66;5105502;28;20039;-61
2021/03/31 10:09:44;;;;;;;41.92;13.68;;;;;;;7.25;83.96;101034.81;5105486;28;20123;-63
2021/03/31 10:12:11;;;;;;;51.17;11.27;;;;;;;7.23;83.67;101020.16;5105394;28;20046;-62
2021/03/31 10:14:47;;;;;;;27.02;7.72;;;;;;;7.21;83.78;101027.00;5086519;28;20096;-62
2021/03/31 10:17:12;;;;;;;42.85;12.32;;;;;;;7.18;83.96;101020.09;5104607;28;20081;-62
2021/03/31 10:19:38;;;;;;;21.02;7.25;;;;;;;7.17;83.45;101013.19;5105253;28;20106;-62
2021/03/31 10:22:06;;;;;;;73.03;12.65;;;;;;;7.05;83.56;101006.09;5105234;28;20031;-62
2021/03/31 10:24:42;;;;;;;30.98;11.55;;;;;;;7.01;84.12;101004.34;5104982;28;20028;-62
2021/03/31 10:27:10;;;;;;;89.43;15.30;;;;;;;7.12;84.21;100999.34;5104970;28;20064;-62
2021/03/31 10:29:43;;;;;;;48.90;11.30;;;;;;;7.12;84.04;100992.47;5104630;28;20061;-62
2021/03/31 10:32:08;;;;;;;34.60;8.75;;;;;;;7.14;83.93;100987.31;5105045;28;20084;-62
2021/03/31 10:34:39;;;;;;;23.98;8.43;;;;;;;7.16;83.98;100980.44;5104701;28;20024;-62
2021/03/31 10:40:13;;;;;;;37.72;8.93;;;;;;;7.18;83.74;100969.31;5104752;28;20077;-62
2021/03/31 10:48:33;;;;;;;49.70;10.02;;;;;;;7.40;83.69;100976.47;5104940;28;20031;-63
2021/03/31 10:51:08;;;;;;;26.40;8.82;;;;;;;7.36;83.27;100967.84;5104844;28;20024;-64
2021/03/31 10:53:39;;;;;;;22.92;12.27;;;;;;;7.43;83.29;100961.91;5104647;28;20059;-64
2021/03/31 10:56:05;;;;;;;18.83;9.10;;;;;;;7.52;83.28;100968.03;5104307;28;20031;-64
2021/03/31 10:58:31;;;;;;;21.17;11.00;;;;;;;7.53;83.03;100968.06;5104526;28;20578;-63
2021/03/31 11:00:56;;;;;;;24.60;11.73;;;;;;;7.65;83.13;100962.16;5104083;28;20028;-61
2021/03/31 11:03:23;;;;;;;24.83;12.98;;;;;;;7.76;82.39;100970.09;5104539;28;20020;-64
2021/03/31 11:05:50;;;;;;;33.30;13.25;;;;;;;7.73;81.92;100969.16;5104485;28;20080;-64
2021/03/31 11:08:15;;;;;;;27.67;11.45;;;;;;;7.69;81.57;100969.13;5104503;28;20024;-64
2021/03/31 11:10:41;;;;;;;24.85;11.32;;;;;;;7.60;81.45;100971.59;5104519;28;20039;-64
2021/03/31 11:13:06;;;;;;;13.65;6.90;;;;;;;7.50;81.30;100964.56;5104411;28;20043;-64
2021/03/31 11:15:31;;;;;;;23.15;9.43;;;;;;;7.30;81.61;100970.34;5103891;28;20026;-64
2021/03/31 11:18:06;;;;;;;24.80;10.80;;;;;;;7.19;82.15;100968.47;5104238;28;20039;-64
2021/03/31 11:28:09;;;;;;;19.92;10.40;;;;;;;7.14;82.80;100956.34;5103396;28;20107;-63
2021/03/31 11:30:35;;;;;;;20.08;9.02;;;;;;;7.18;82.49;100945.19;5103732;28;20024;-65
2021/03/31 11:33:01;;;;;;;31.27;14.27;;;;;;;7.18;82.16;100950.34;5104134;28;20028;-64
2021/03/31 11:35:26;;;;;;;29.25;14.80;;;;;;;7.21;82.44;100957.28;5103857;28;20078;-64
2021/03/31 11:37:52;;;;;;;30.20;14.90;;;;;;;7.32;82.31;100955.72;5085557;28;20045;-64
2021/03/31 11:40:17;;;;;;;34.08;15.35;;;;;;;7.39;82.08;100942.06;5103964;28;20020;-62
2021/03/31 11:42:43;;;;;;;26.15;11.70;;;;;;;7.49;82.00;100947.34;5103820;28;20035;-62